Time;durP1;ratioP1;P1;durP2;ratioP2;P2;SDS_P1;SDS_P2;PMS_P1;PMS_P2;Temp;Humidity;BMP_temperature;BMP_pressure;BME280_temperature;BME280_humidity;BME280_pressure;Samples;Min_cycle;Max_cycle;Signal;HPM_P1;HPM_P2
2023/03/23 00:01:53;;;;;;;47.73;36.30;;;29.50;74.40;;;;;;1882287;74;21217;-80
2023/03/23 00:04:26;;;;;;;43.83;35.60;;;29.50;73.80;;;;;;1872358;74;21174;-79
2023/03/23 00:06:54;;;;;;;52.38;36.08;;;29.60;73.50;;;;;;1871041;74;21375;-79
2023/03/23 00:09:23;;;;;;;44.93;36.65;;;29.60;73.20;;;;;;1860549;75;21268;-79
2023/03/23 00:11:56;;;;;;;45.03;36.05;;;29.70;73.10;;;;;;1866032;74;21150;-79
2023/03/23 00:14:24;;;;;;;49.50;37.93;;;29.70;73.20;;;;;;1890896;74;21224;-79
2023/03/23 00:17:02;;;;;;;45.67;37.13;;;29.70;73.20;;;;;;1919475;74;21126;-81
2023/03/23 00:19:32;;;;;;;44.45;35.50;;;29.70;73.10;;;;;;1914665;74;21085;-79
2023/03/23 00:22:03;;;;;;;44.63;37.75;;;29.70;73.00;;;;;;1861208;76;21184;-79
2023/03/23 00:24:59;;;;;;;44.00;35.10;;;29.70;73.20;;;;;;1894392;73;21212;-79
2023/03/23 00:27:26;;;;;;;42.50;35.23;;;29.70;73.10;;;;;;1869042;74;21598;-81
2023/03/23 00:29:56;;;;;;;44.33;35.98;;;29.70;73.00;;;;;;1862015;75;21184;-79
2023/03/23 00:32:29;;;;;;;42.05;35.75;;;29.70;73.00;;;;;;1854156;75;21105;-80
2023/03/23 00:34:59;;;;;;;41.83;35.75;;;29.80;73.50;;;;;;1862615;74;21200;-79
2023/03/23 00:37:30;;;;;;;47.83;34.78;;;29.80;72.80;;;;;;1864166;74;21719;-78
2023/03/23 00:40:07;;;;;;;43.23;35.15;;;29.80;73.00;;;;;;1848359;75;21207;-78
2023/03/23 00:42:37;;;;;;;37.30;31.02;;;29.80;72.70;;;;;;1873654;74;21130;-79
2023/03/23 00:45:10;;;;;;;42.03;33.25;;;29.80;72.00;;;;;;1849884;74;21215;-79
2023/03/23 00:47:36;;;;;;;35.85;30.32;;;29.90;72.20;;;;;;1846470;74;21095;-80
2023/03/23 00:50:06;;;;;;;43.65;30.32;;;29.90;71.30;;;;;;1847132;75;21148;-80
2023/03/23 00:52:35;;;;;;;40.43;31.25;;;30.00;70.80;;;;;;1852935;74;21483;-79
2023/03/23 00:55:05;;;;;;;37.67;29.02;;;30.00;70.20;;;;;;1865318;74;21148;-80
2023/03/23 00:57:35;;;;;;;40.78;29.12;;;30.00;69.90;;;;;;1862428;74;22005;-79
2023/03/23 01:00:09;;;;;;;38.35;29.15;;;30.10;70.50;;;;;;1858278;75;21498;-80
2023/03/23 01:02:36;;;;;;;35.75;29.60;;;30.10;69.90;;;;;;1871639;75;21409;-80
2023/03/23 01:05:06;;;;;;;34.60;28.50;;;30.20;69.50;;;;;;1868674;73;21123;-81
2023/03/23 01:07:35;;;;;;;35.98;30.12;;;30.30;69.50;;;;;;1867835;74;21759;-80
2023/03/23 01:10:05;;;;;;;40.92;30.65;;;30.30;69.50;;;;;;1859977;75;21130;-79
2023/03/23 01:12:35;;;;;;;33.67;29.27;;;30.40;69.20;;;;;;1794620;78;21204;-79
2023/03/23 01:15:05;;;;;;;32.45;26.52;;;30.40;68.70;;;;;;1857643;75;21148;-80
2023/03/23 01:17:34;;;;;;;38.98;27.50;;;30.40;68.80;;;;;;1899249;74;22044;-80
2023/03/23 01:20:06;;;;;;;36.63;27.75;;;30.50;68.00;;;;;;1836785;75;21153;-79
2023/03/23 01:22:35;;;;;;;34.38;27.67;;;30.50;68.50;;;;;;1816259;77;21335;-80
2023/03/23 01:25:06;;;;;;;31.25;27.67;;;30.70;68.00;;;;;;1835056;74;21473;-80
2023/03/23 01:27:35;;;;;;;31.23;26.05;;;30.70;67.70;;;;;;1857522;75;21608;-80
2023/03/23 01:30:06;;;;;;;36.80;26.35;;;30.70;67.30;;;;;;1788069;77;21156;-80
2023/03/23 01:32:36;;;;;;;35.25;26.75;;;30.80;67.30;;;;;;1804846;78;21167;-80
2023/03/23 01:35:05;;;;;;;29.32;26.15;;;30.80;67.10;;;;;;1855088;75;21210;-79
2023/03/23 01:37:36;;;;;;;35.85;26.40;;;30.90;67.10;;;;;;1861351;74;21128;-80
2023/03/23 01:40:06;;;;;;;38.80;27.07;;;30.90;66.90;;;;;;1845450;74;21191;-81
2023/03/23 01:42:38;;;;;;;32.13;26.55;;;31.00;66.60;;;;;;1849392;75;21137;-78
2023/03/23 01:45:25;;;;;;;30.95;26.17;;;31.10;66.30;;;;;;1845054;75;21141;-80
2023/03/23 01:47:57;;;;;;;31.75;26.52;;;31.10;65.90;;;;;;1856956;75;21201;-80
2023/03/23 01:50:34;;;;;;;31.95;26.48;;;31.10;65.60;;;;;;1884301;74;21134;-79
2023/03/23 01:53:06;;;;;;;34.13;25.37;;;31.10;65.50;;;;;;1851910;75;21169;-81
2023/03/23 01:55:39;;;;;;;31.62;26.65;;;31.20;65.80;;;;;;1841770;74;21993;-81
2023/03/23 01:58:14;;;;;;;32.88;27.10;;;31.20;65.90;;;;;;1875048;74;21184;-80
2023/03/23 02:00:59;;;;;;;;;;;;;;;;;;;;;
2023/03/23 02:03:55;;;;;;;;;;;;;;;;;;;;;
2023/03/23 02:06:26;;;;;;;39.90;25.85;;;31.40;65.30;;;;;;1759977;81;21155;-80
2023/03/23 02:08:58;;;;;;;33.23;26.12;;;31.50;64.90;;;;;;1730616;83;21144;-80
2023/03/23 02:11:28;;;;;;;32.03;26.27;;;31.50;64.30;;;;;;1709676;83;21552;-79
2023/03/23 02:13:57;;;;;;;37.40;27.17;;;31.50;64.40;;;;;;1716487;81;21240;-82
2023/03/23 02:16:42;;;;;;;32.73;25.65;;;31.70;64.70;;;;;;1698100;83;21212;-82
2023/03/23 02:19:26;;;;;;;34.27;26.60;;;31.70;64.30;;;;;;1696978;83;21613;-81
2023/03/23 02:22:18;;;;;;;33.10;24.82;;;31.80;63.90;;;;;;1757694;80;21351;-81
2023/03/23 02:24:53;;;;;;;31.52;25.95;;;31.90;63.30;;;;;;1746008;79;21171;-82
2023/03/23 02:27:31;;;;;;;33.30;26.05;;;32.00;61.80;;;;;;1707849;82;21172;-83
2023/03/23 02:30:18;;;;;;;31.12;24.40;;;32.00;62.60;;;;;;1779964;79;21954;-83
2023/03/23 02:32:54;;;;;;;27.35;23.62;;;32.10;62.90;;;;;;1780973;80;21216;-83
2023/03/23 02:35:25;;;;;;;29.65;24.32;;;32.20;61.40;;;;;;1727183;80;21255;-79
2023/03/23 02:37:57;;;;;;;30.48;24.12;;;32.30;60.90;;;;;;1820112;75;21202;-81
2023/03/23 02:40:54;;;;;;;33.50;24.25;;;32.30;61.40;;;;;;1860153;75;21193;-82
2023/03/23 02:43:27;;;;;;;32.48;24.43;;;32.50;59.90;;;;;;1832379;75;21187;-80
2023/03/23 02:45:57;;;;;;;33.98;24.47;;;32.50;59.80;;;;;;1858561;75;21871;-82
2023/03/23 02:48:29;;;;;;;38.92;25.57;;;32.60;59.90;;;;;;1872051;75;21220;-81
2023/03/23 02:51:00;;;;;;;29.80;23.92;;;32.70;59.60;;;;;;1860879;75;21231;-85
2023/03/23 02:53:31;;;;;;;29.25;24.52;;;32.90;59.30;;;;;;1863742;75;21224;-81
2023/03/23 02:56:02;;;;;;;40.70;26.80;;;33.00;58.70;;;;;;1802436;77;21518;-81
2023/03/23 02:58:34;;;;;;;30.77;24.25;;;33.10;59.10;;;;;;1875415;76;21233;-81
2023/03/23 03:01:22;;;;;;;28.80;23.70;;;33.70;59.00;;;;;;1852718;76;21728;-79
2023/03/23 03:03:51;;;;;;;34.90;23.47;;;33.30;57.90;;;;;;1841080;76;21238;-79
2023/03/23 03:06:23;;;;;;;36.80;25.12;;;33.50;57.80;;;;;;1839630;76;21682;-81
2023/03/23 03:09:00;;;;;;;27.77;24.23;;;33.50;57.50;;;;;;1853595;76;21460;-77
2023/03/23 03:11:30;;;;;;;34.30;25.92;;;33.70;56.20;;;;;;1860011;76;21106;-78
2023/03/23 03:14:05;;;;;;;31.73;24.55;;;33.80;55.90;;;;;;1857271;76;21652;-79
2023/03/23 03:16:40;;;;;;;29.50;23.83;;;33.90;56.00;;;;;;1869575;76;21149;-79
2023/03/23 03:19:11;;;;;;;34.38;25.35;;;;;;;;;;1854134;76;21124;-79
2023/03/23 03:21:46;;;;;;;28.20;22.32;;;34.10;55.10;;;;;;1844600;76;21277;-78
2023/03/23 03:24:18;;;;;;;27.77;22.77;;;34.20;55.10;;;;;;1861875;73;21542;-79
2023/03/23 03:26:50;;;;;;;37.60;26.55;;;34.30;55.30;;;;;;1917990;73;21198;-79
2023/03/23 03:29:23;;;;;;;41.53;27.37;;;34.40;55.40;;;;;;1908735;73;21422;-80
2023/03/23 03:31:55;;;;;;;38.53;25.10;;;34.50;55.40;;;;;;1893646;74;21236;-79
2023/03/23 03:34:27;;;;;;;29.95;24.12;;;34.60;55.30;;;;;;1883730;74;21092;-78
2023/03/23 03:36:59;;;;;;;29.07;23.90;;;34.70;54.10;;;;;;1888006;74;21149;-79
2023/03/23 03:39:29;;;;;;;30.23;23.38;;;34.80;54.50;;;;;;1871281;75;21160;-79
2023/03/23 03:41:59;;;;;;;27.75;24.18;;;34.90;54.40;;;;;;1879857;74;21163;-78
2023/03/23 03:44:28;;;;;;;31.70;23.30;;;35.00;55.00;;;;;;1890897;73;21235;-78
2023/03/23 03:46:58;;;;;;;33.23;23.83;;;35.00;53.80;;;;;;1896143;74;21728;-79
2023/03/23 03:49:27;;;;;;;29.02;24.35;;;35.10;53.60;;;;;;1910745;74;21192;-77
2023/03/23 03:51:57;;;;;;;29.00;24.45;;;35.10;54.00;;;;;;1894823;74;21213;-79
2023/03/23 03:54:27;;;;;;;41.33;25.20;;;35.20;53.50;;;;;;1870488;74;21880;-80
2023/03/23 03:56:57;;;;;;;31.77;25.48;;;35.20;53.60;;;;;;1889569;74;21273;-80
2023/03/23 03:59:27;;;;;;;44.95;25.55;;;35.30;53.20;;;;;;1870057;74;21159;-80
2023/03/23 04:01:56;;;;;;;30.82;24.12;;;35.40;52.90;;;;;;1885875;73;21239;-78
2023/03/23 04:04:26;;;;;;;28.65;25.37;;;35.50;52.60;;;;;;1902040;73;21257;-79
2023/03/23 04:06:59;;;;;;;32.45;24.57;;;35.50;52.30;;;;;;1897633;74;21186;-80
2023/03/23 04:09:31;;;;;;;30.15;24.70;;;35.60;52.20;;;;;;1903806;74;21120;-78
2023/03/23 04:11:59;;;;;;;31.33;25.02;;;35.60;52.30;;;;;;1896291;74;21088;-79
2023/03/23 04:14:29;;;;;;;34.45;24.12;;;35.60;52.70;;;;;;1888753;74;21181;-80
2023/03/23 04:16:58;;;;;;;29.65;23.42;;;35.70;52.50;;;;;;1887999;74;21320;-78
2023/03/23 04:19:32;;;;;;;27.67;24.63;;;35.70;52.30;;;;;;1885483;74;21131;-82
2023/03/23 04:22:04;;;;;;;29.55;23.65;;;35.80;52.60;;;;;;1853269;76;21208;-78
2023/03/23 04:24:53;;;;;;;;;;;;;;;;;;;;;
2023/03/23 04:27:22;;;;;;;29.12;23.62;;;35.90;51.50;;;;;;1844271;76;21073;-80
2023/03/23 04:29:53;;;;;;;27.05;24.25;;;36.00;50.40;;;;;;1809036;75;21190;-79
2023/03/23 04:32:31;;;;;;;38.98;25.10;;;36.10;50.90;;;;;;1843877;77;21183;-81
2023/03/23 04:35:11;;;;;;;30.45;24.05;;;36.10;50.70;;;;;;1876479;75;21557;-80
2023/03/23 04:37:58;;;;;;;28.42;25.02;;;36.20;50.20;;;;;;1831399;77;21226;-79
2023/03/23 04:40:34;;;;;;;35.88;26.02;;;36.30;49.90;;;;;;1850276;76;21230;-79
2023/03/23 04:43:21;;;;;;;32.60;24.80;;;36.40;50.10;;;;;;1842825;76;21151;-79
2023/03/23 04:46:02;;;;;;;29.02;24.27;;;36.50;50.90;;;;;;1775313;79;21298;-79
2023/03/23 04:48:33;;;;;;;28.95;23.52;;;36.60;50.80;;;;;;1872293;75;21296;-80
2023/03/23 04:51:03;;;;;;;25.92;22.67;;;36.60;50.50;;;;;;1835153;77;21202;-79
2023/03/23 04:53:33;;;;;;;26.95;24.05;;;36.60;50.40;;;;;;1771341;79;21171;-79
2023/03/23 04:56:02;;;;;;;30.55;23.65;;;36.60;50.30;;;;;;1840840;76;21504;-80
2023/03/23 04:58:33;;;;;;;27.65;23.83;;;36.70;50.40;;;;;;1845931;75;21274;-79
2023/03/23 05:01:04;;;;;;;27.93;24.72;;;36.70;50.70;;;;;;1872042;75;21168;-79
2023/03/23 05:03:34;;;;;;;26.95;23.52;;;36.60;50.60;;;;;;1893483;75;21199;-79
2023/03/23 05:06:07;;;;;;;27.22;24.07;;;36.60;50.80;;;;;;1898942;74;21206;-80
2023/03/23 05:08:38;;;;;;;27.15;23.87;;;36.70;50.30;;;;;;1871745;75;21197;-80
2023/03/23 05:11:09;;;;;;;29.60;23.55;;;36.70;50.50;;;;;;1849700;75;21153;-78
2023/03/23 05:13:39;;;;;;;32.95;23.70;;;36.80;49.50;;;;;;1898549;75;21169;-78
2023/03/23 05:16:08;;;;;;;25.00;21.85;;;36.90;48.70;;;;;;1872451;75;21561;-79
2023/03/23 05:18:38;;;;;;;25.65;22.40;;;36.90;49.20;;;;;;1872566;75;21210;-79
2023/03/23 05:21:07;;;;;;;29.23;23.38;;;36.90;49.00;;;;;;1866936;75;21216;-79
2023/03/23 05:23:37;;;;;;;25.50;22.85;;;36.80;49.50;;;;;;1898505;74;21258;-80
2023/03/23 05:26:07;;;;;;;33.33;24.65;;;36.70;49.90;;;;;;1806034;78;21147;-78
2023/03/23 05:28:36;;;;;;;26.90;23.32;;;36.60;49.70;;;;;;1874995;75;21172;-78
2023/03/23 05:31:05;;;;;;;37.93;24.63;;;36.70;49.80;;;;;;1866516;75;21213;-78
2023/03/23 05:33:35;;;;;;;28.02;22.52;;;36.70;49.20;;;;;;1866053;76;21720;-79
2023/03/23 05:36:06;;;;;;;28.98;24.32;;;36.80;49.30;;;;;;1856913;74;21142;-79
2023/03/23 05:38:36;;;;;;;27.10;23.05;;;36.80;50.00;;;;;;1870396;76;21242;-80
2023/03/23 05:41:06;;;;;;;24.50;21.97;;;36.90;49.40;;;;;;1867488;75;21209;-78
2023/03/23 05:43:35;;;;;;;32.58;23.05;;;37.00;49.10;;;;;;1868327;75;21129;-78
2023/03/23 05:46:05;;;;;;;46.95;24.47;;;37.00;49.10;;;;;;1862559;75;21152;-79
2023/03/23 05:48:36;;;;;;;30.75;25.17;;;36.90;49.50;;;;;;1850710;75;21160;-78
2023/03/23 05:51:05;;;;;;;27.17;23.80;;;37.00;49.90;;;;;;1846229;75;21175;-79
2023/03/23 05:53:35;;;;;;;29.12;23.50;;;37.00;49.20;;;;;;1869470;75;21648;-80
2023/03/23 05:56:06;;;;;;;28.35;23.95;;;37.00;49.50;;;;;;1874535;75;21825;-81
2023/03/23 05:58:35;;;;;;;29.82;22.87;;;37.00;50.80;;;;;;1864201;75;21617;-79
2023/03/23 06:01:07;;;;;;;31.42;23.22;;;37.00;49.70;;;;;;1857357;75;21183;-80
2023/03/23 06:03:36;;;;;;;27.73;24.75;;;37.10;49.40;;;;;;1842577;76;21779;-80
2023/03/23 06:06:06;;;;;;;30.45;23.67;;;37.20;49.70;;;;;;1872742;75;21860;-80
2023/03/23 06:08:36;;;;;;;34.85;23.83;;;37.30;49.30;;;;;;1862741;75;21188;-81
2023/03/23 06:11:06;;;;;;;29.05;23.47;;;37.40;49.00;;;;;;1822242;76;21248;-79
2023/03/23 06:13:36;;;;;;;27.50;23.12;;;37.50;48.70;;;;;;1874554;74;21228;-79
2023/03/23 06:16:06;;;;;;;25.72;23.00;;;37.50;49.00;;;;;;1880234;75;21689;-79
2023/03/23 06:18:36;;;;;;;30.77;24.70;;;37.50;48.50;;;;;;1867783;75;21253;-79
2023/03/23 06:21:06;;;;;;;27.80;23.50;;;37.40;48.90;;;;;;1874397;75;21480;-80
2023/03/23 06:23:37;;;;;;;26.60;22.93;;;37.30;47.80;;;;;;1900865;74;21117;-80
2023/03/23 06:26:09;;;;;;;25.60;22.90;;;37.20;48.30;;;;;;1884457;74;21143;-79
2023/03/23 06:28:39;;;;;;;28.35;23.10;;;37.10;47.90;;;;;;1890275;73;21239;-78
2023/03/23 06:31:08;;;;;;;32.08;23.10;;;37.10;47.20;;;;;;1875963;73;21266;-79
2023/03/23 06:33:40;;;;;;;25.02;22.05;;;37.00;47.40;;;;;;1877540;74;21151;-79
2023/03/23 06:36:11;;;;;;;25.70;20.48;;;37.00;47.20;;;;;;1894401;74;21136;-81
2023/03/23 06:38:41;;;;;;;26.50;21.85;;;36.90;46.10;;;;;;1888897;73;21176;-79
2023/03/23 06:41:11;;;;;;;28.05;22.52;;;36.90;47.10;;;;;;1898382;74;21204;-78
2023/03/23 06:43:40;;;;;;;26.77;22.82;;;36.80;47.30;;;;;;1889433;73;21252;-79
2023/03/23 06:46:09;;;;;;;25.00;22.32;;;36.70;47.60;;;;;;1895607;74;21152;-78
2023/03/23 06:48:39;;;;;;;26.77;23.10;;;36.70;47.80;;;;;;1898158;74;22039;-77
2023/03/23 06:51:09;;;;;;;28.05;24.37;;;36.60;48.00;;;;;;1897829;74;21172;-80
2023/03/23 06:53:38;;;;;;;26.07;23.10;;;36.50;48.10;;;;;;1911416;73;21101;-79
2023/03/23 06:56:08;;;;;;;25.97;23.20;;;36.40;48.50;;;;;;1859309;76;21179;-79
2023/03/23 06:58:38;;;;;;;25.88;22.98;;;36.30;48.30;;;;;;1896742;74;21906;-78
2023/03/23 07:01:09;;;;;;;31.45;23.87;;;36.20;48.30;;;;;;1911881;73;21199;-79
2023/03/23 07:03:40;;;;;;;27.93;22.32;;;36.20;48.00;;;;;;1872563;75;21976;-79
2023/03/23 07:06:09;;;;;;;32.98;22.07;;;36.10;47.90;;;;;;1857916;75;21270;-79
2023/03/23 07:08:39;;;;;;;25.57;21.75;;;36.00;47.30;;;;;;1937624;73;21214;-79
2023/03/23 07:11:09;;;;;;;62.80;26.80;;;35.90;47.40;;;;;;1896061;74;21518;-80
2023/03/23 07:13:40;;;;;;;60.52;26.82;;;35.80;51.80;;;;;;1903988;73;21150;-80
2023/03/23 07:16:10;;;;;;;57.27;28.20;;;35.40;55.50;;;;;;1893875;74;21441;-82
2023/03/23 07:18:39;;;;;;;42.35;28.23;;;34.70;61.40;;;;;;1886966;74;21257;-83
2023/03/23 07:21:09;;;;;;;33.80;25.45;;;33.70;65.50;;;;;;1875577;74;21196;-80
2023/03/23 07:23:39;;;;;;;34.63;24.72;;;32.40;66.40;;;;;;1897254;74;21167;-81
2023/03/23 07:26:09;;;;;;;38.42;26.80;;;32.30;69.10;;;;;;1891381;75;21204;-81
2023/03/23 07:28:39;;;;;;;37.15;23.67;;;31.90;70.60;;;;;;1855863;75;21180;-81
2023/03/23 07:31:09;;;;;;;32.38;23.85;;;31.80;98.90;;;;;;1867420;74;21198;-81
2023/03/23 07:33:38;;;;;;;30.35;21.55;;;31.50;71.50;;;;;;1875264;73;21661;-80
2023/03/23 07:36:08;;;;;;;30.85;21.17;;;31.30;71.50;;;;;;1838925;76;21251;-82
2023/03/23 07:38:37;;;;;;;30.20;22.13;;;;;;;;;;1860153;75;21621;-81
2023/03/23 07:41:07;;;;;;;27.50;20.95;;;31.20;71.70;;;;;;1864276;75;21230;-81
2023/03/23 07:43:36;;;;;;;25.55;20.50;;;31.20;72.50;;;;;;1865778;75;21259;-80
2023/03/23 07:46:06;;;;;;;25.77;19.32;;;31.10;72.60;;;;;;1855582;74;21549;-80
2023/03/23 07:48:36;;;;;;;23.50;19.17;;;31.10;72.80;;;;;;1867829;75;21203;-80
2023/03/23 07:51:05;;;;;;;29.00;19.35;;;31.10;73.60;;;;;;1868882;75;21634;-80
2023/03/23 07:53:36;;;;;;;26.23;19.52;;;31.30;73.70;;;;;;1873217;75;21055;-81
2023/03/23 07:56:05;;;;;;;24.05;20.57;;;31.30;72.40;;;;;;1889649;74;21207;-82
2023/03/23 07:58:35;;;;;;;25.37;21.15;;;31.30;73.00;;;;;;1888115;74;21132;-80
2023/03/23 08:01:04;;;;;;;28.55;20.82;;;31.10;73.90;;;;;;1848237;75;21659;-81
2023/03/23 08:03:34;;;;;;;26.77;22.90;;;30.90;74.30;;;;;;1867692;75;21204;-80
2023/03/23 08:06:03;;;;;;;29.23;23.80;;;30.70;74.90;;;;;;1864075;75;21198;-80
2023/03/23 08:08:33;;;;;;;30.95;23.87;;;30.50;75.20;;;;;;1866648;75;21616;-80
2023/03/23 08:11:03;;;;;;;28.15;22.70;;;30.40;76.60;;;;;;1846168;75;21224;-81
2023/03/23 08:13:33;;;;;;;24.72;18.32;;;30.20;75.10;;;;;;1869288;75;21181;-79
2023/03/23 08:16:05;;;;;;;22.27;17.52;;;;;;;;;;1845054;75;21201;-81
2023/03/23 08:18:34;;;;;;;20.65;14.90;;;29.90;71.50;;;;;;1865027;74;21203;-82
2023/03/23 08:21:05;;;;;;;21.42;14.70;;;29.80;70.00;;;;;;1869566;75;21175;-80
2023/03/23 08:23:34;;;;;;;20.55;15.13;;;29.80;70.00;;;;;;1869524;75;21235;-82
2023/03/23 08:26:06;;;;;;;26.57;19.17;;;29.70;70.30;;;;;;1852205;75;21243;-80
2023/03/23 08:28:36;;;;;;;21.30;18.65;;;29.80;72.40;;;;;;1847872;75;22073;-83
2023/03/23 08:31:13;;;;;;;21.02;15.70;;;29.80;71.70;;;;;;1863900;74;21193;-82
2023/03/23 08:33:43;;;;;;;19.55;14.83;;;29.90;70.10;;;;;;1870055;74;21169;-82
2023/03/23 08:36:12;;;;;;;23.95;15.13;;;29.90;69.40;;;;;;1868160;75;21140;-82
2023/03/23 08:38:43;;;;;;;18.23;14.40;;;30.00;69.50;;;;;;1867060;75;21756;-80
2023/03/23 08:41:12;;;;;;;23.83;14.47;;;30.10;68.40;;;;;;1851943;75;21172;-81
2023/03/23 08:43:41;;;;;;;19.75;15.13;;;30.10;68.90;;;;;;1852441;75;21196;-80
2023/03/23 08:46:11;;;;;;;24.02;15.03;;;30.10;69.80;;;;;;1859895;74;21137;-82
2023/03/23 08:48:43;;;;;;;20.32;14.98;;;30.10;70.40;;;;;;1869845;75;21588;-81
2023/03/23 08:51:13;;;;;;;18.15;13.25;;;30.10;71.30;;;;;;1874958;75;21156;-80
2023/03/23 08:53:43;;;;;;;12.70;11.50;;;30.20;70.90;;;;;;1868730;75;21265;-81
2023/03/23 08:56:13;;;;;;;15.43;12.18;;;30.20;70.30;;;;;;1811864;78;21238;-80
2023/03/23 08:58:43;;;;;;;14.68;11.68;;;30.20;70.70;;;;;;1796043;78;21113;-80
2023/03/23 09:01:12;;;;;;;16.32;12.37;;;30.20;70.50;;;;;;1890437;75;21147;-79
2023/03/23 09:03:42;;;;;;;22.10;12.18;;;30.30;70.20;;;;;;1856924;74;21213;-80
2023/03/23 09:06:12;;;;;;;27.20;14.28;;;30.20;71.10;;;;;;1823396;77;21156;-80
2023/03/23 09:08:41;;;;;;;23.05;14.05;;;30.30;74.80;;;;;;1853762;75;21136;-80
2023/03/23 09:11:12;;;;;;;17.65;11.97;;;30.20;75.70;;;;;;1869441;75;21152;-80
2023/03/23 09:13:41;;;;;;;18.07;12.03;;;30.20;74.10;;;;;;1893896;74;21125;-79
2023/03/23 09:16:11;;;;;;;16.73;12.50;;;30.10;74.40;;;;;;1856145;75;21156;-81
2023/03/23 09:18:41;;;;;;;21.33;13.88;;;30.10;75.10;;;;;;1868730;75;21226;-80
2023/03/23 09:21:10;;;;;;;19.02;12.98;;;30.00;76.50;;;;;;1872797;75;21101;-80
2023/03/23 09:23:43;;;;;;;28.32;15.15;;;29.80;75.00;;;;;;1889393;74;21356;-80
2023/03/23 09:26:11;;;;;;;22.02;14.50;;;29.70;73.50;;;;;;1905008;74;21584;-82
2023/03/23 09:28:41;;;;;;;22.32;16.17;;;29.60;74.30;;;;;;1861608;75;22032;-81
2023/03/23 09:31:10;;;;;;;23.22;16.40;;;29.60;75.10;;;;;;1855149;75;21138;-80
2023/03/23 09:33:40;;;;;;;27.05;19.12;;;29.60;75.80;;;;;;1866194;75;21390;-80
2023/03/23 09:36:17;;;;;;;29.67;21.23;;;29.70;76.50;;;;;;1872693;75;21138;-80
2023/03/23 09:38:47;;;;;;;28.00;20.57;;;29.70;77.00;;;;;;1867932;74;21218;-79
2023/03/23 09:41:38;;;;;;;38.40;25.02;;;29.80;80.10;;;;;;1853747;75;21899;-80
2023/03/23 09:44:33;;;;;;;33.60;23.75;;;29.80;81.70;;;;;;1894965;74;21233;-80
2023/03/23 09:47:28;;;;;;;36.38;22.48;;;29.70;82.80;;;;;;1816103;78;21253;-80
2023/03/23 09:49:59;;;;;;;31.17;22.73;;;29.70;81.20;;;;;;1801241;77;21152;-81
2023/03/23 09:52:40;;;;;;;34.10;24.95;;;29.70;81.40;;;;;;1850717;75;21245;-82
2023/03/23 09:55:12;;;;;;;34.18;23.27;;;29.70;81.70;;;;;;1894825;74;21124;-80
2023/03/23 09:57:50;;;;;;;33.53;24.90;;;29.70;83.10;;;;;;1871620;75;21173;-80
2023/03/23 10:00:34;;;;;;;32.00;25.05;;;29.70;84.10;;;;;;1872620;74;21841;-80
2023/03/23 10:03:18;;;;;;;39.25;24.05;;;29.60;86.10;;;;;;1871941;73;21170;-83
2023/03/23 10:05:50;;;;;;;38.35;24.20;;;29.60;87.50;;;;;;1872354;75;21522;-80
2023/03/23 10:08:22;;;;;;;30.97;23.75;;;29.50;87.60;;;;;;1868766;75;22020;-80
2023/03/23 10:11:21;;;;;;;27.62;22.22;;;29.40;83.00;;;;;;1843019;76;21597;-79
2023/03/23 10:13:59;;;;;;;24.72;21.68;;;29.40;80.10;;;;;;1874773;75;21182;-81
2023/03/23 10:16:30;;;;;;;28.55;23.65;;;29.30;79.30;;;;;;1829350;76;21711;-80
2023/03/23 10:19:20;;;;;;;29.57;24.50;;;29.20;81.40;;;;;;1856231;74;21130;-81
2023/03/23 10:21:52;;;;;;;28.92;24.70;;;29.20;80.80;;;;;;1865361;74;21140;-81
2023/03/23 10:24:24;;;;;;;34.78;25.45;;;29.20;80.70;;;;;;1823368;77;21168;-81
2023/03/23 10:27:01;;;;;;;32.45;24.77;;;29.20;80.00;;;;;;1826824;74;21136;-82
2023/03/23 10:29:36;;;;;;;31.87;26.05;;;29.20;81.10;;;;;;1898359;74;21224;-82
2023/03/23 10:32:14;;;;;;;33.18;26.10;;;29.30;80.60;;;;;;1856731;75;21129;-82
2023/03/23 10:34:45;;;;;;;29.87;24.75;;;29.40;79.60;;;;;;1905127;74;21156;-82
2023/03/23 10:37:26;;;;;;;28.95;23.40;;;29.60;78.70;;;;;;1863926;75;21174;-82
2023/03/23 10:40:09;;;;;;;29.12;26.02;;;29.70;78.60;;;;;;1889014;75;21164;-82
2023/03/23 10:42:37;;;;;;;33.33;26.95;;;29.80;78.00;;;;;;1842049;75;21149;-82
2023/03/23 10:45:25;;;;;;;29.07;25.35;;;29.90;77.80;;;;;;1865701;75;21723;-82
2023/03/23 10:47:57;;;;;;;30.45;26.60;;;30.00;78.90;;;;;;1855737;75;21904;-83
2023/03/23 10:50:29;;;;;;;32.20;27.32;;;30.00;78.40;;;;;;1870069;75;21141;-82
2023/03/23 10:53:00;;;;;;;31.75;28.35;;;30.00;79.50;;;;;;1845779;76;21191;-82
2023/03/23 10:55:41;;;;;;;33.30;27.93;;;30.10;81.10;;;;;;1819585;77;21743;-83
2023/03/23 10:58:16;;;;;;;33.83;27.58;;;30.10;82.50;;;;;;1847323;75;21176;-81
2023/03/23 11:00:47;;;;;;;33.45;28.67;;;30.10;81.90;;;;;;1860557;75;21204;-82
2023/03/23 11:03:18;;;;;;;34.10;29.02;;;30.00;80.40;;;;;;1871426;75;21239;-82
2023/03/23 11:05:50;;;;;;;32.65;28.73;;;30.00;81.70;;;;;;1865457;75;21724;-82
2023/03/23 11:08:34;;;;;;;44.35;35.85;;;29.90;80.80;;;;;;1871226;75;21157;-83
2023/03/23 11:11:11;;;;;;;42.23;32.58;;;29.90;84.30;;;;;;1873525;75;21160;-82
2023/03/23 11:13:44;;;;;;;38.10;32.70;;;29.90;84.50;;;;;;1871009;75;21199;-84
2023/03/23 11:16:24;;;;;;;38.85;31.17;;;29.90;84.70;;;;;;1841059;75;21140;-84
2023/03/23 11:18:53;;;;;;;41.08;30.97;;;29.80;85.20;;;;;;1876297;75;21121;-83
2023/03/23 11:21:24;;;;;;;39.83;33.35;;;29.80;84.40;;;;;;1860399;75;21225;-82
2023/03/23 11:23:58;;;;;;;39.92;33.95;;;29.80;85.70;;;;;;1847436;75;21171;-82
2023/03/23 11:26:30;;;;;;;37.33;31.90;;;29.80;86.80;;;;;;1857944;75;21158;-82
2023/03/23 11:29:20;;;;;;;36.42;32.58;;;29.90;85.80;;;;;;1869641;75;21264;-83
2023/03/23 11:31:52;;;;;;;37.33;31.07;;;29.90;86.10;;;;;;1855310;75;21238;-83
2023/03/23 11:34:37;;;;;;;38.63;30.75;;;29.90;85.50;;;;;;1858254;74;21445;-83
2023/03/23 11:37:09;;;;;;;44.38;34.25;;;30.00;86.10;;;;;;1885790;74;21187;-83
2023/03/23 11:39:58;;;;;;;42.10;33.70;;;30.00;87.80;;;;;;1884317;74;22025;-83
2023/03/23 11:42:30;;;;;;;40.08;33.78;;;30.00;88.10;;;;;;1829062;76;21121;-81
2023/03/23 11:48:22;;;;;;;39.60;34.33;;;29.80;88.20;;;;;;1870927;74;21232;-82
2023/03/23 11:50:54;;;;;;;53.38;35.15;;;29.80;89.50;;;;;;1897974;74;21726;-82
2023/03/23 11:53:29;;;;;;;50.10;34.88;;;29.80;89.50;;;;;;1908940;74;21223;-80
2023/03/23 11:56:00;;;;;;;47.83;34.48;;;29.70;89.20;;;;;;1871780;74;21111;-83
2023/03/23 11:58:32;;;;;;;49.77;36.42;;;29.70;90.00;;;;;;1901483;74;21154;-82
2023/03/23 12:01:06;;;;;;;50.52;35.68;;;29.80;90.40;;;;;;1863937;75;21220;-81
2023/03/23 12:03:53;;;;;;;51.20;35.50;;;29.80;90.40;;;;;;1862857;77;21621;-82
2023/03/23 12:06:44;;;;;;;44.55;34.33;;;29.80;90.20;;;;;;1873689;75;21150;-83
2023/03/23 12:09:35;;;;;;;43.68;34.58;;;29.80;89.70;;;;;;1912905;74;21165;-80
2023/03/23 12:12:38;;;;;;;48.30;35.78;;;29.80;90.40;;;;;;1855573;74;21150;-82
2023/03/23 12:15:20;;;;;;;46.83;33.55;;;29.80;90.00;;;;;;1730961;82;21170;-82
2023/03/23 12:18:14;;;;;;;46.83;35.05;;;29.70;90.20;;;;;;1750055;79;21669;-82
2023/03/23 12:21:02;;;;;;;50.50;35.45;;;29.70;90.10;;;;;;1823678;74;21684;-82
2023/03/23 12:23:42;;;;;;;44.25;34.55;;;29.70;90.50;;;;;;1858003;74;21822;-83
2023/03/23 12:26:37;;;;;;;48.23;35.28;;;29.80;91.00;;;;;;1855818;76;21154;-82
2023/03/23 12:29:27;;;;;;;56.37;34.80;;;29.80;91.00;;;;;;1883395;74;21212;-83
2023/03/23 12:32:02;;;;;;;57.40;38.55;;;29.70;90.80;;;;;;1891775;74;21175;-82
2023/03/23 12:34:34;;;;;;;53.17;37.13;;;29.70;91.10;;;;;;1856411;76;21150;-81
2023/03/23 12:37:32;;;;;;;50.85;36.05;;;29.70;91.50;;;;;;1860817;74;22056;-82
2023/03/23 12:40:08;;;;;;;57.27;36.63;;;29.70;91.20;;;;;;1853736;74;21293;-82
2023/03/23 12:43:01;;;;;;;59.25;40.95;;;29.70;91.40;;;;;;1879029;74;21210;-81
2023/03/23 12:45:45;;;;;;;55.10;38.65;;;29.70;91.30;;;;;;1866139;74;21174;-82
2023/03/23 12:48:19;;;;;;;60.73;38.02;;;29.70;91.50;;;;;;1904075;73;21559;-82
2023/03/23 12:51:14;;;;;;;49.18;36.13;;;29.70;91.60;;;;;;1888132;73;21152;-82
2023/03/23 12:54:07;;;;;;;51.02;36.45;;;29.70;91.50;;;;;;1919837;73;21247;-82
2023/03/23 12:56:56;;;;;;;50.78;36.05;;;29.70;91.80;;;;;;1844529;75;21194;-82
2023/03/23 12:59:31;;;;;;;49.67;36.63;;;29.70;91.00;;;;;;1867079;74;21129;-82
2023/03/23 13:02:23;;;;;;;52.08;36.65;;;29.60;90.90;;;;;;1799848;77;21476;-82
2023/03/23 13:04:54;;;;;;;50.85;37.73;;;29.70;91.20;;;;;;1861938;76;21149;-82
2023/03/23 13:07:26;;;;;;;59.40;39.08;;;29.60;91.00;;;;;;1867061;76;21168;-80